sensor_id;sensor_type;location;lat;lon;timestamp;P1;durP1;ratioP1;P2;durP2;ratioP2
32196;SDS011;18697;42.770;23.400;2023-05-15T00:00:33;12.57;;;9.73;;
32196;SDS011;18697;42.770;23.400;2023-05-15T00:02:58;13.77;;;10.93;;
32196;SDS011;18697;42.770;23.400;2023-05-15T00:05:23;14.63;;;10.90;;
32196;SDS011;18697;42.770;23.400;2023-05-15T00:10:14;15.13;;;10.82;;
32196;SDS011;18697;42.770;23.400;2023-05-15T00:15:05;12.63;;;10.05;;
32196;SDS011;18697;42.770;23.400;2023-05-15T00:17:31;15.23;;;11.95;;
32196;SDS011;18697;42.770;23.400;2023-05-15T00:19:56;15.90;;;11.05;;
32196;SDS011;18697;42.770;23.400;2023-05-15T00:22:24;15.50;;;10.75;;
32196;SDS011;18697;42.770;23.400;2023-05-15T00:24:50;13.48;;;11.07;;
32196;SDS011;18697;42.770;23.400;2023-05-15T00:27:15;15.77;;;10.32;;
32196;SDS011;18697;42.770;23.400;2023-05-15T00:29:40;16.40;;;10.82;;
32196;SDS011;18697;42.770;23.400;2023-05-15T00:32:06;15.77;;;9.63;;
32196;SDS011;18697;42.770;23.400;2023-05-15T00:34:31;15.55;;;11.07;;
32196;SDS011;18697;42.770;23.400;2023-05-15T00:36:57;17.08;;;11.30;;
32196;SDS011;18697;42.770;23.400;2023-05-15T00:39:24;14.23;;;10.23;;
32196;SDS011;18697;42.770;23.400;2023-05-15T00:41:49;12.77;;;10.63;;
32196;SDS011;18697;42.770;23.400;2023-05-15T00:44:16;16.80;;;11.45;;
32196;SDS011;18697;42.770;23.400;2023-05-15T00:46:44;14.35;;;10.18;;
32196;SDS011;18697;42.770;23.400;2023-05-15T00:49:10;15.82;;;11.60;;
32196;SDS011;18697;42.770;23.400;2023-05-15T00:51:39;15.77;;;10.85;;
32196;SDS011;18697;42.770;23.400;2023-05-15T00:54:06;15.07;;;10.23;;
32196;SDS011;18697;42.770;23.400;2023-05-15T00:56:32;17.23;;;11.00;;
32196;SDS011;18697;42.770;23.400;2023-05-15T00:58:58;11.93;;;9.88;;
32196;SDS011;18697;42.770;23.400;2023-05-15T01:01:26;12.10;;;9.65;;
32196;SDS011;18697;42.770;23.400;2023-05-15T01:03:52;13.40;;;11.10;;
32196;SDS011;18697;42.770;23.400;2023-05-15T01:06:18;14.55;;;11.00;;
32196;SDS011;18697;42.770;23.400;2023-05-15T01:11:13;21.95;;;13.00;;
32196;SDS011;18697;42.770;23.400;2023-05-15T01:13:40;20.83;;;12.35;;
32196;SDS011;18697;42.770;23.400;2023-05-15T01:16:07;22.73;;;12.90;;
32196;SDS011;18697;42.770;23.400;2023-05-15T01:18:33;34.70;;;19.20;;
32196;SDS011;18697;42.770;23.400;2023-05-15T01:29:02;12.02;;;8.80;;
32196;SDS011;18697;42.770;23.400;2023-05-15T01:31:30;11.07;;;9.43;;
32196;SDS011;18697;42.770;23.400;2023-05-15T01:34:01;12.65;;;9.00;;
32196;SDS011;18697;42.770;23.400;2023-05-15T01:36:35;13.13;;;8.82;;
32196;SDS011;18697;42.770;23.400;2023-05-15T01:39:03;10.37;;;8.83;;
32196;SDS011;18697;42.770;23.400;2023-05-15T01:42:14;10.73;;;8.77;;
32196;SDS011;18697;42.770;23.400;2023-05-15T01:44:27;11.13;;;9.43;;
32196;SDS011;18697;42.770;23.400;2023-05-15T01:46:59;11.45;;;9.00;;
32196;SDS011;18697;42.770;23.400;2023-05-15T01:49:30;11.63;;;9.23;;
32196;SDS011;18697;42.770;23.400;2023-05-15T01:52:10;14.07;;;9.75;;
32196;SDS011;18697;42.770;23.400;2023-05-15T01:54:40;9.88;;;8.88;;
32196;SDS011;18697;42.770;23.400;2023-05-15T01:57:07;10.70;;;9.32;;
32196;SDS011;18697;42.770;23.400;2023-05-15T01:59:34;10.60;;;9.27;;
32196;SDS011;18697;42.770;23.400;2023-05-15T02:02:02;11.20;;;10.10;;
32196;SDS011;18697;42.770;23.400;2023-05-15T02:04:29;10.75;;;9.65;;
32196;SDS011;18697;42.770;23.400;2023-05-15T02:06:54;11.35;;;10.15;;
32196;SDS011;18697;42.770;23.400;2023-05-15T02:09:21;13.57;;;9.77;;
32196;SDS011;18697;42.770;23.400;2023-05-15T02:11:48;12.55;;;9.65;;
32196;SDS011;18697;42.770;23.400;2023-05-15T02:14:15;11.75;;;10.30;;
32196;SDS011;18697;42.770;23.400;2023-05-15T02:16:41;12.60;;;10.20;;
32196;SDS011;18697;42.770;23.400;2023-05-15T02:19:06;11.70;;;10.43;;
32196;SDS011;18697;42.770;23.400;2023-05-15T02:21:32;12.07;;;10.13;;
32196;SDS011;18697;42.770;23.400;2023-05-15T02:23:59;11.88;;;9.25;;
32196;SDS011;18697;42.770;23.400;2023-05-15T02:31:25;12.18;;;9.95;;
32196;SDS011;18697;42.770;23.400;2023-05-15T02:34:01;16.40;;;10.52;;
32196;SDS011;18697;42.770;23.400;2023-05-15T02:36:33;16.63;;;10.60;;
32196;SDS011;18697;42.770;23.400;2023-05-15T02:39:02;14.20;;;10.60;;
32196;SDS011;18697;42.770;23.400;2023-05-15T02:41:28;14.93;;;11.15;;
32196;SDS011;18697;42.770;23.400;2023-05-15T02:43:56;13.95;;;11.63;;
32196;SDS011;18697;42.770;23.400;2023-05-15T02:46:24;13.05;;;10.80;;
32196;SDS011;18697;42.770;23.400;2023-05-15T02:48:50;16.42;;;11.95;;
32196;SDS011;18697;42.770;23.400;2023-05-15T02:51:17;15.15;;;12.07;;
32196;SDS011;18697;42.770;23.400;2023-05-15T02:53:42;14.88;;;12.02;;
32196;SDS011;18697;42.770;23.400;2023-05-15T02:56:08;14.77;;;12.65;;
32196;SDS011;18697;42.770;23.400;2023-05-15T02:58:34;14.05;;;11.90;;
32196;SDS011;18697;42.770;23.400;2023-05-15T03:01:00;15.52;;;11.55;;
32196;SDS011;18697;42.770;23.400;2023-05-15T03:03:25;17.20;;;11.77;;
32196;SDS011;18697;42.770;23.400;2023-05-15T03:05:50;16.23;;;11.45;;
32196;SDS011;18697;42.770;23.400;2023-05-15T03:10:42;15.10;;;11.32;;
32196;SDS011;18697;42.770;23.400;2023-05-15T03:13:07;13.63;;;10.60;;
32196;SDS011;18697;42.770;23.400;2023-05-15T03:17:58;16.33;;;10.35;;
32196;SDS011;18697;42.770;23.400;2023-05-15T03:20:23;13.30;;;10.73;;
32196;SDS011;18697;42.770;23.400;2023-05-15T03:25:14;17.50;;;10.50;;
32196;SDS011;18697;42.770;23.400;2023-05-15T03:27:39;11.80;;;9.60;;
32196;SDS011;18697;42.770;23.400;2023-05-15T03:30:05;15.02;;;10.65;;
32196;SDS011;18697;42.770;23.400;2023-05-15T03:32:31;13.15;;;10.07;;
32196;SDS011;18697;42.770;23.400;2023-05-15T03:34:56;18.08;;;11.80;;
32196;SDS011;18697;42.770;23.400;2023-05-15T03:39:47;12.85;;;9.85;;
32196;SDS011;18697;42.770;23.400;2023-05-15T03:42:12;15.40;;;10.38;;
32196;SDS011;18697;42.770;23.400;2023-05-15T03:44:37;13.18;;;10.35;;
32196;SDS011;18697;42.770;23.400;2023-05-15T03:47:03;15.15;;;11.15;;
32196;SDS011;18697;42.770;23.400;2023-05-15T03:51:55;14.13;;;10.05;;
32196;SDS011;18697;42.770;23.400;2023-05-15T03:54:20;16.52;;;10.77;;
32196;SDS011;18697;42.770;23.400;2023-05-15T03:56:46;18.08;;;10.85;;
32196;SDS011;18697;42.770;23.400;2023-05-15T03:59:12;13.10;;;10.63;;
32196;SDS011;18697;42.770;23.400;2023-05-15T04:04:02;14.50;;;10.82;;
32196;SDS011;18697;42.770;23.400;2023-05-15T04:06:28;15.00;;;10.98;;
32196;SDS011;18697;42.770;23.400;2023-05-15T04:08:53;17.30;;;11.13;;
32196;SDS011;18697;42.770;23.400;2023-05-15T04:11:18;15.77;;;10.48;;
32196;SDS011;18697;42.770;23.400;2023-05-15T04:13:45;15.80;;;11.30;;
32196;SDS011;18697;42.770;23.400;2023-05-15T04:16:10;16.08;;;11.27;;
32196;SDS011;18697;42.770;23.400;2023-05-15T04:18:36;16.23;;;12.05;;
32196;SDS011;18697;42.770;23.400;2023-05-15T04:21:01;20.48;;;11.55;;
32196;SDS011;18697;42.770;23.400;2023-05-15T04:23:27;16.75;;;11.48;;
32196;SDS011;18697;42.770;23.400;2023-05-15T04:25:52;16.08;;;12.00;;
32196;SDS011;18697;42.770;23.400;2023-05-15T04:30:45;15.82;;;11.93;;
32196;SDS011;18697;42.770;23.400;2023-05-15T04:33:11;15.70;;;11.40;;
32196;SDS011;18697;42.770;23.400;2023-05-15T04:35:36;15.70;;;12.25;;
32196;SDS011;18697;42.770;23.400;2023-05-15T04:38:02;19.05;;;13.13;;
32196;SDS011;18697;42.770;23.400;2023-05-15T04:40:28;19.65;;;12.80;;
32196;SDS011;18697;42.770;23.400;2023-05-15T04:42:54;20.75;;;14.35;;
32196;SDS011;18697;42.770;23.400;2023-05-15T04:45:19;21.02;;;14.30;;
32196;SDS011;18697;42.770;23.400;2023-05-15T04:47:45;20.33;;;13.45;;
32196;SDS011;18697;42.770;23.400;2023-05-15T04:50:10;17.05;;;12.98;;
32196;SDS011;18697;42.770;23.400;2023-05-15T04:52:36;19.73;;;13.55;;
32196;SDS011;18697;42.770;23.400;2023-05-15T04:55:01;19.08;;;13.55;;
32196;SDS011;18697;42.770;23.400;2023-05-15T04:57:27;16.20;;;12.40;;
32196;SDS011;18697;42.770;23.400;2023-05-15T04:59:53;19.42;;;12.68;;
32196;SDS011;18697;42.770;23.400;2023-05-15T05:04:47;19.70;;;13.07;;
32196;SDS011;18697;42.770;23.400;2023-05-15T05:07:13;16.77;;;12.25;;
32196;SDS011;18697;42.770;23.400;2023-05-15T05:09:38;16.80;;;11.80;;
32196;SDS011;18697;42.770;23.400;2023-05-15T05:12:05;23.25;;;13.88;;
32196;SDS011;18697;42.770;23.400;2023-05-15T05:14:31;18.38;;;12.05;;
32196;SDS011;18697;42.770;23.400;2023-05-15T05:16:57;18.95;;;12.13;;
32196;SDS011;18697;42.770;23.400;2023-05-15T05:19:22;19.10;;;12.40;;
32196;SDS011;18697;42.770;23.400;2023-05-15T05:21:48;18.85;;;11.10;;
32196;SDS011;18697;42.770;23.400;2023-05-15T05:26:38;19.20;;;13.07;;
32196;SDS011;18697;42.770;23.400;2023-05-15T05:29:07;23.67;;;14.43;;
32196;SDS011;18697;42.770;23.400;2023-05-15T05:31:32;26.33;;;15.32;;
32196;SDS011;18697;42.770;23.400;2023-05-15T05:36:23;28.65;;;15.80;;
32196;SDS011;18697;42.770;23.400;2023-05-15T05:38:48;31.30;;;16.10;;
32196;SDS011;18697;42.770;23.400;2023-05-15T05:41:13;23.75;;;15.98;;
32196;SDS011;18697;42.770;23.400;2023-05-15T05:46:04;35.38;;;17.90;;
32196;SDS011;18697;42.770;23.400;2023-05-15T05:50:57;31.50;;;18.08;;
32196;SDS011;18697;42.770;23.400;2023-05-15T05:53:22;24.20;;;15.27;;
32196;SDS011;18697;42.770;23.400;2023-05-15T05:55:48;30.70;;;16.20;;
32196;SDS011;18697;42.770;23.400;2023-05-15T05:58:13;25.30;;;16.13;;
32196;SDS011;18697;42.770;23.400;2023-05-15T06:00:41;34.85;;;18.35;;
32196;SDS011;18697;42.770;23.400;2023-05-15T06:03:07;31.38;;;17.20;;
32196;SDS011;18697;42.770;23.400;2023-05-15T06:07:58;22.80;;;13.43;;
32196;SDS011;18697;42.770;23.400;2023-05-15T06:10:26;23.80;;;14.50;;
32196;SDS011;18697;42.770;23.400;2023-05-15T06:12:51;18.13;;;10.88;;
32196;SDS011;18697;42.770;23.400;2023-05-15T06:15:17;20.23;;;12.95;;
32196;SDS011;18697;42.770;23.400;2023-05-15T06:20:08;16.77;;;10.82;;
32196;SDS011;18697;42.770;23.400;2023-05-15T06:22:36;25.02;;;13.73;;
32196;SDS011;18697;42.770;23.400;2023-05-15T06:25:03;18.60;;;11.98;;
32196;SDS011;18697;42.770;23.400;2023-05-15T06:27:29;27.45;;;12.95;;
32196;SDS011;18697;42.770;23.400;2023-05-15T06:29:54;21.38;;;13.88;;
32196;SDS011;18697;42.770;23.400;2023-05-15T06:32:20;22.23;;;13.25;;
32196;SDS011;18697;42.770;23.400;2023-05-15T06:34:45;22.08;;;13.00;;
32196;SDS011;18697;42.770;23.400;2023-05-15T06:37:11;24.98;;;15.40;;
32196;SDS011;18697;42.770;23.400;2023-05-15T06:39:36;23.05;;;14.88;;
32196;SDS011;18697;42.770;23.400;2023-05-15T06:44:29;21.95;;;13.77;;
32196;SDS011;18697;42.770;23.400;2023-05-15T06:46:55;23.05;;;13.93;;
32196;SDS011;18697;42.770;23.400;2023-05-15T06:49:20;26.75;;;17.23;;
32196;SDS011;18697;42.770;23.400;2023-05-15T06:54:12;20.37;;;14.00;;
32196;SDS011;18697;42.770;23.400;2023-05-15T06:56:38;24.00;;;15.80;;
32196;SDS011;18697;42.770;23.400;2023-05-15T07:01:29;26.17;;;17.67;;
32196;SDS011;18697;42.770;23.400;2023-05-15T07:03:55;21.52;;;14.93;;
32196;SDS011;18697;42.770;23.400;2023-05-15T07:06:20;26.50;;;17.40;;
32196;SDS011;18697;42.770;23.400;2023-05-15T07:08:46;25.40;;;16.65;;
32196;SDS011;18697;42.770;23.400;2023-05-15T07:11:11;28.23;;;17.23;;
32196;SDS011;18697;42.770;23.400;2023-05-15T07:16:02;24.50;;;15.25;;
32196;SDS011;18697;42.770;23.400;2023-05-15T07:18:28;26.67;;;17.90;;
32196;SDS011;18697;42.770;23.400;2023-05-15T07:20:54;31.60;;;17.67;;
32196;SDS011;18697;42.770;23.400;2023-05-15T07:23:19;21.65;;;15.88;;
32196;SDS011;18697;42.770;23.400;2023-05-15T07:25:44;31.77;;;17.70;;
32196;SDS011;18697;42.770;23.400;2023-05-15T07:30:35;26.52;;;16.35;;
32196;SDS011;18697;42.770;23.400;2023-05-15T07:33:01;23.30;;;16.65;;
32196;SDS011;18697;42.770;23.400;2023-05-15T07:35:26;26.60;;;16.90;;
32196;SDS011;18697;42.770;23.400;2023-05-15T07:40:17;26.48;;;17.52;;
32196;SDS011;18697;42.770;23.400;2023-05-15T07:42:42;25.42;;;16.02;;
32196;SDS011;18697;42.770;23.400;2023-05-15T07:45:08;22.67;;;15.80;;
32196;SDS011;18697;42.770;23.400;2023-05-15T07:47:34;25.08;;;16.60;;
32196;SDS011;18697;42.770;23.400;2023-05-15T07:50:00;25.85;;;16.60;;
32196;SDS011;18697;42.770;23.400;2023-05-15T07:52:25;30.45;;;17.85;;
32196;SDS011;18697;42.770;23.400;2023-05-15T07:54:51;24.52;;;17.00;;
32196;SDS011;18697;42.770;23.400;2023-05-15T07:57:16;21.15;;;15.18;;
32196;SDS011;18697;42.770;23.400;2023-05-15T07:59:42;30.88;;;18.35;;
32196;SDS011;18697;42.770;23.400;2023-05-15T08:02:07;31.02;;;19.08;;
32196;SDS011;18697;42.770;23.400;2023-05-15T08:04:32;25.27;;;17.23;;
32196;SDS011;18697;42.770;23.400;2023-05-15T08:09:23;28.75;;;19.13;;
32196;SDS011;18697;42.770;23.400;2023-05-15T08:14:14;28.35;;;16.63;;
32196;SDS011;18697;42.770;23.400;2023-05-15T08:16:39;31.73;;;20.80;;
32196;SDS011;18697;42.770;23.400;2023-05-15T08:19:04;34.53;;;19.77;;
32196;SDS011;18697;42.770;23.400;2023-05-15T08:21:31;33.38;;;20.35;;
32196;SDS011;18697;42.770;23.400;2023-05-15T08:23:58;59.17;;;30.23;;
32196;SDS011;18697;42.770;23.400;2023-05-15T08:26:24;60.33;;;30.50;;
32196;SDS011;18697;42.770;23.400;2023-05-15T08:28:49;64.63;;;31.38;;
32196;SDS011;18697;42.770;23.400;2023-05-15T08:31:15;58.70;;;31.15;;
32196;SDS011;18697;42.770;23.400;2023-05-15T08:33:40;62.85;;;33.30;;
32196;SDS011;18697;42.770;23.400;2023-05-15T08:36:06;39.20;;;25.52;;
32196;SDS011;18697;42.770;23.400;2023-05-15T08:38:31;35.90;;;22.70;;
32196;SDS011;18697;42.770;23.400;2023-05-15T08:40:57;30.50;;;20.77;;
32196;SDS011;18697;42.770;23.400;2023-05-15T08:43:30;35.42;;;24.13;;
32196;SDS011;18697;42.770;23.400;2023-05-15T08:45:59;32.00;;;21.15;;
32196;SDS011;18697;42.770;23.400;2023-05-15T08:48:26;39.28;;;23.35;;
32196;SDS011;18697;42.770;23.400;2023-05-15T08:50:54;36.33;;;21.25;;
32196;SDS011;18697;42.770;23.400;2023-05-15T08:53:22;28.08;;;19.02;;
32196;SDS011;18697;42.770;23.400;2023-05-15T08:55:47;31.83;;;21.35;;
32196;SDS011;18697;42.770;23.400;2023-05-15T08:58:14;29.40;;;19.92;;
32196;SDS011;18697;42.770;23.400;2023-05-15T09:00:41;30.02;;;19.73;;
32196;SDS011;18697;42.770;23.400;2023-05-15T09:03:12;26.40;;;19.02;;
32196;SDS011;18697;42.770;23.400;2023-05-15T09:05:38;25.33;;;18.38;;
32196;SDS011;18697;42.770;23.400;2023-05-15T09:08:04;27.48;;;19.95;;
32196;SDS011;18697;42.770;23.400;2023-05-15T09:10:32;26.73;;;18.40;;
32196;SDS011;18697;42.770;23.400;2023-05-15T09:12:58;29.70;;;19.13;;
32196;SDS011;18697;42.770;23.400;2023-05-15T09:15:25;25.98;;;19.13;;
32196;SDS011;18697;42.770;23.400;2023-05-15T09:17:51;28.25;;;17.85;;
32196;SDS011;18697;42.770;23.400;2023-05-15T09:20:25;25.55;;;18.33;;
32196;SDS011;18697;42.770;23.400;2023-05-15T09:22:52;26.55;;;18.52;;
32196;SDS011;18697;42.770;23.400;2023-05-15T09:25:36;35.75;;;22.30;;
32196;SDS011;18697;42.770;23.400;2023-05-15T09:28:02;33.78;;;18.98;;
32196;SDS011;18697;42.770;23.400;2023-05-15T09:30:28;29.52;;;19.38;;
32196;SDS011;18697;42.770;23.400;2023-05-15T09:32:58;27.58;;;18.98;;
32196;SDS011;18697;42.770;23.400;2023-05-15T09:35:38;28.77;;;18.50;;
32196;SDS011;18697;42.770;23.400;2023-05-15T09:38:08;25.30;;;17.45;;
32196;SDS011;18697;42.770;23.400;2023-05-15T09:40:37;25.95;;;17.45;;
32196;SDS011;18697;42.770;23.400;2023-05-15T09:43:02;28.35;;;18.42;;
32196;SDS011;18697;42.770;23.400;2023-05-15T09:45:28;24.15;;;16.88;;
32196;SDS011;18697;42.770;23.400;2023-05-15T09:47:54;24.92;;;17.75;;
32196;SDS011;18697;42.770;23.400;2023-05-15T09:50:21;24.40;;;16.77;;
32196;SDS011;18697;42.770;23.400;2023-05-15T09:52:48;24.50;;;17.33;;
32196;SDS011;18697;42.770;23.400;2023-05-15T09:55:15;21.08;;;16.13;;
32196;SDS011;18697;42.770;23.400;2023-05-15T09:57:44;24.10;;;17.13;;
32196;SDS011;18697;42.770;23.400;2023-05-15T10:00:28;22.02;;;16.65;;
32196;SDS011;18697;42.770;23.400;2023-05-15T10:02:56;22.45;;;17.17;;
32196;SDS011;18697;42.770;23.400;2023-05-15T10:05:25;25.45;;;16.77;;
32196;SDS011;18697;42.770;23.400;2023-05-15T10:07:53;25.98;;;17.30;;
32196;SDS011;18697;42.770;23.400;2023-05-15T10:10:20;24.10;;;17.35;;
32196;SDS011;18697;42.770;23.400;2023-05-15T10:12:46;33.85;;;22.45;;
32196;SDS011;18697;42.770;23.400;2023-05-15T10:15:13;33.15;;;20.25;;
32196;SDS011;18697;42.770;23.400;2023-05-15T10:17:38;21.13;;;15.02;;
32196;SDS011;18697;42.770;23.400;2023-05-15T10:20:06;27.35;;;19.65;;
32196;SDS011;18697;42.770;23.400;2023-05-15T10:22:36;22.73;;;16.50;;
32196;SDS011;18697;42.770;23.400;2023-05-15T10:25:06;20.58;;;16.02;;
32196;SDS011;18697;42.770;23.400;2023-05-15T10:27:37;31.77;;;18.15;;
32196;SDS011;18697;42.770;23.400;2023-05-15T10:30:02;31.20;;;19.23;;
32196;SDS011;18697;42.770;23.400;2023-05-15T10:32:29;23.98;;;17.00;;
32196;SDS011;18697;42.770;23.400;2023-05-15T10:34:55;23.77;;;17.48;;
32196;SDS011;18697;42.770;23.400;2023-05-15T10:37:21;18.23;;;14.15;;
32196;SDS011;18697;42.770;23.400;2023-05-15T10:39:47;20.05;;;15.65;;
32196;SDS011;18697;42.770;23.400;2023-05-15T10:42:13;22.73;;;15.52;;
32196;SDS011;18697;42.770;23.400;2023-05-15T10:44:40;22.70;;;17.30;;
32196;SDS011;18697;42.770;23.400;2023-05-15T10:47:06;21.10;;;15.23;;
32196;SDS011;18697;42.770;23.400;2023-05-15T10:49:32;20.80;;;14.93;;
32196;SDS011;18697;42.770;23.400;2023-05-15T10:52:01;24.05;;;18.98;;
32196;SDS011;18697;42.770;23.400;2023-05-15T10:54:26;24.98;;;18.90;;
32196;SDS011;18697;42.770;23.400;2023-05-15T10:56:54;25.90;;;17.60;;
32196;SDS011;18697;42.770;23.400;2023-05-15T10:59:21;36.05;;;25.42;;
32196;SDS011;18697;42.770;23.400;2023-05-15T11:01:55;27.23;;;21.00;;
32196;SDS011;18697;42.770;23.400;2023-05-15T11:04:21;23.42;;;17.67;;
32196;SDS011;18697;42.770;23.400;2023-05-15T11:06:48;39.63;;;25.25;;
32196;SDS011;18697;42.770;23.400;2023-05-15T11:14:22;18.48;;;14.75;;
32196;SDS011;18697;42.770;23.400;2023-05-15T11:19:23;21.42;;;15.60;;
32196;SDS011;18697;42.770;23.400;2023-05-15T11:24:45;19.75;;;16.00;;
32196;SDS011;18697;42.770;23.400;2023-05-15T11:27:16;20.92;;;16.30;;
32196;SDS011;18697;42.770;23.400;2023-05-15T11:30:18;25.70;;;15.77;;
32196;SDS011;18697;42.770;23.400;2023-05-15T11:35:28;24.00;;;18.13;;
32196;SDS011;18697;42.770;23.400;2023-05-15T11:40:51;23.20;;;15.43;;
32196;SDS011;18697;42.770;23.400;2023-05-15T11:45:47;22.88;;;16.60;;
32196;SDS011;18697;42.770;23.400;2023-05-15T11:48:20;21.65;;;16.67;;
32196;SDS011;18697;42.770;23.400;2023-05-15T11:50:46;21.13;;;15.65;;
32196;SDS011;18697;42.770;23.400;2023-05-15T11:53:12;19.10;;;14.70;;
32196;SDS011;18697;42.770;23.400;2023-05-15T11:55:39;19.98;;;15.32;;
32196;SDS011;18697;42.770;23.400;2023-05-15T11:58:14;22.05;;;15.63;;
32196;SDS011;18697;42.770;23.400;2023-05-15T12:00:50;19.40;;;14.90;;
32196;SDS011;18697;42.770;23.400;2023-05-15T12:05:43;22.17;;;15.15;;
32196;SDS011;18697;42.770;23.400;2023-05-15T12:08:11;24.20;;;14.57;;
32196;SDS011;18697;42.770;23.400;2023-05-15T12:10:45;24.70;;;14.48;;
32196;SDS011;18697;42.770;23.400;2023-05-15T12:13:11;19.70;;;14.65;;
32196;SDS011;18697;42.770;23.400;2023-05-15T12:15:38;17.88;;;13.52;;
32196;SDS011;18697;42.770;23.400;2023-05-15T12:18:08;16.58;;;12.10;;
32196;SDS011;18697;42.770;23.400;2023-05-15T12:20:34;19.77;;;13.18;;
32196;SDS011;18697;42.770;23.400;2023-05-15T12:23:02;16.45;;;12.45;;
32196;SDS011;18697;42.770;23.400;2023-05-15T12:25:28;19.30;;;13.18;;
32196;SDS011;18697;42.770;23.400;2023-05-15T12:27:54;21.08;;;13.13;;
32196;SDS011;18697;42.770;23.400;2023-05-15T12:30:19;16.58;;;12.30;;
32196;SDS011;18697;42.770;23.400;2023-05-15T12:32:45;19.55;;;12.82;;
32196;SDS011;18697;42.770;23.400;2023-05-15T12:35:11;16.67;;;12.35;;
32196;SDS011;18697;42.770;23.400;2023-05-15T12:37:37;16.85;;;12.93;;
32196;SDS011;18697;42.770;23.400;2023-05-15T12:40:03;18.08;;;13.55;;
32196;SDS011;18697;42.770;23.400;2023-05-15T12:42:40;15.60;;;12.20;;
32196;SDS011;18697;42.770;23.400;2023-05-15T12:45:14;18.40;;;12.50;;
32196;SDS011;18697;42.770;23.400;2023-05-15T12:47:40;22.27;;;13.10;;
32196;SDS011;18697;42.770;23.400;2023-05-15T12:50:13;16.85;;;12.55;;
32196;SDS011;18697;42.770;23.400;2023-05-15T12:52:40;22.33;;;13.02;;
32196;SDS011;18697;42.770;23.400;2023-05-15T12:55:17;16.75;;;13.43;;
32196;SDS011;18697;42.770;23.400;2023-05-15T12:57:46;25.70;;;13.70;;
32196;SDS011;18697;42.770;23.400;2023-05-15T13:00:11;31.35;;;15.10;;
32196;SDS011;18697;42.770;23.400;2023-05-15T13:02:38;16.52;;;13.05;;
32196;SDS011;18697;42.770;23.400;2023-05-15T13:05:07;20.23;;;13.10;;
32196;SDS011;18697;42.770;23.400;2023-05-15T13:07:33;17.52;;;13.10;;
32196;SDS011;18697;42.770;23.400;2023-05-15T13:10:05;17.75;;;13.10;;
32196;SDS011;18697;42.770;23.400;2023-05-15T13:12:44;17.42;;;13.40;;
32196;SDS011;18697;42.770;23.400;2023-05-15T13:15:29;16.25;;;12.48;;
32196;SDS011;18697;42.770;23.400;2023-05-15T13:18:02;18.65;;;13.85;;
32196;SDS011;18697;42.770;23.400;2023-05-15T13:20:37;16.23;;;13.60;;
32196;SDS011;18697;42.770;23.400;2023-05-15T13:23:06;20.17;;;14.93;;
32196;SDS011;18697;42.770;23.400;2023-05-15T13:25:32;19.13;;;13.88;;
32196;SDS011;18697;42.770;23.400;2023-05-15T13:28:00;19.83;;;14.85;;
32196;SDS011;18697;42.770;23.400;2023-05-15T13:30:27;19.60;;;14.02;;
32196;SDS011;18697;42.770;23.400;2023-05-15T13:32:53;17.45;;;14.77;;
32196;SDS011;18697;42.770;23.400;2023-05-15T13:35:19;21.83;;;14.80;;
32196;SDS011;18697;42.770;23.400;2023-05-15T13:37:44;21.42;;;14.48;;
32196;SDS011;18697;42.770;23.400;2023-05-15T13:40:10;25.17;;;15.43;;
32196;SDS011;18697;42.770;23.400;2023-05-15T13:42:37;23.20;;;14.95;;
32196;SDS011;18697;42.770;23.400;2023-05-15T13:45:04;27.52;;;19.95;;
32196;SDS011;18697;42.770;23.400;2023-05-15T13:47:31;21.98;;;15.43;;
32196;SDS011;18697;42.770;23.400;2023-05-15T13:49:57;21.15;;;13.90;;
32196;SDS011;18697;42.770;23.400;2023-05-15T13:52:22;21.25;;;13.90;;
32196;SDS011;18697;42.770;23.400;2023-05-15T13:54:48;24.30;;;14.57;;
32196;SDS011;18697;42.770;23.400;2023-05-15T13:57:13;20.45;;;15.25;;
32196;SDS011;18697;42.770;23.400;2023-05-15T13:59:39;23.73;;;12.63;;
32196;SDS011;18697;42.770;23.400;2023-05-15T14:02:04;19.73;;;12.32;;
32196;SDS011;18697;42.770;23.400;2023-05-15T14:04:30;19.08;;;12.52;;
32196;SDS011;18697;42.770;23.400;2023-05-15T14:06:55;18.85;;;11.98;;
32196;SDS011;18697;42.770;23.400;2023-05-15T14:09:20;14.30;;;11.95;;
32196;SDS011;18697;42.770;23.400;2023-05-15T14:11:46;15.95;;;11.95;;
32196;SDS011;18697;42.770;23.400;2023-05-15T14:14:11;22.75;;;13.35;;
32196;SDS011;18697;42.770;23.400;2023-05-15T14:16:36;18.48;;;12.65;;
32196;SDS011;18697;42.770;23.400;2023-05-15T14:19:02;16.65;;;12.20;;
32196;SDS011;18697;42.770;23.400;2023-05-15T14:21:27;19.33;;;12.70;;
32196;SDS011;18697;42.770;23.400;2023-05-15T14:23:52;16.00;;;10.80;;
32196;SDS011;18697;42.770;23.400;2023-05-15T14:26:18;17.35;;;12.25;;
32196;SDS011;18697;42.770;23.400;2023-05-15T14:28:43;14.73;;;10.27;;
32196;SDS011;18697;42.770;23.400;2023-05-15T14:31:08;23.95;;;10.20;;
32196;SDS011;18697;42.770;23.400;2023-05-15T14:33:34;13.93;;;10.70;;
32196;SDS011;18697;42.770;23.400;2023-05-15T14:35:59;23.80;;;11.77;;
32196;SDS011;18697;42.770;23.400;2023-05-15T14:38:25;13.75;;;10.15;;
32196;SDS011;18697;42.770;23.400;2023-05-15T14:40:50;13.40;;;9.75;;
32196;SDS011;18697;42.770;23.400;2023-05-15T14:43:16;13.73;;;10.00;;
32196;SDS011;18697;42.770;23.400;2023-05-15T14:45:41;18.40;;;11.23;;
32196;SDS011;18697;42.770;23.400;2023-05-15T14:48:07;16.58;;;11.00;;
32196;SDS011;18697;42.770;23.400;2023-05-15T14:50:33;17.10;;;11.15;;
32196;SDS011;18697;42.770;23.400;2023-05-15T14:52:58;16.40;;;10.32;;
32196;SDS011;18697;42.770;23.400;2023-05-15T14:55:24;22.20;;;11.73;;
32196;SDS011;18697;42.770;23.400;2023-05-15T14:57:49;16.73;;;11.15;;
32196;SDS011;18697;42.770;23.400;2023-05-15T15:00:15;14.63;;;11.75;;
32196;SDS011;18697;42.770;23.400;2023-05-15T15:02:43;14.95;;;11.52;;
32196;SDS011;18697;42.770;23.400;2023-05-15T15:05:10;18.40;;;11.10;;
32196;SDS011;18697;42.770;23.400;2023-05-15T15:10:24;18.15;;;12.35;;
32196;SDS011;18697;42.770;23.400;2023-05-15T15:12:50;16.90;;;11.57;;
32196;SDS011;18697;42.770;23.400;2023-05-15T15:15:16;17.27;;;11.85;;
32196;SDS011;18697;42.770;23.400;2023-05-15T15:17:41;16.95;;;13.05;;
32196;SDS011;18697;42.770;23.400;2023-05-15T15:20:08;24.23;;;12.93;;
32196;SDS011;18697;42.770;23.400;2023-05-15T15:22:35;16.83;;;12.88;;
32196;SDS011;18697;42.770;23.400;2023-05-15T15:25:01;20.55;;;14.00;;
32196;SDS011;18697;42.770;23.400;2023-05-15T15:27:26;15.90;;;12.70;;
32196;SDS011;18697;42.770;23.400;2023-05-15T15:29:51;21.08;;;13.05;;
32196;SDS011;18697;42.770;23.400;2023-05-15T15:32:17;20.65;;;12.63;;
32196;SDS011;18697;42.770;23.400;2023-05-15T15:34:43;21.73;;;13.15;;
32196;SDS011;18697;42.770;23.400;2023-05-15T15:37:09;22.42;;;13.30;;
32196;SDS011;18697;42.770;23.400;2023-05-15T15:39:35;22.95;;;12.45;;
32196;SDS011;18697;42.770;23.400;2023-05-15T15:42:00;16.73;;;12.82;;
32196;SDS011;18697;42.770;23.400;2023-05-15T15:44:26;15.50;;;12.63;;
32196;SDS011;18697;42.770;23.400;2023-05-15T15:46:51;19.23;;;13.18;;